^^
Station Historical Data
 
Daily Summary for December 15, 2017 Units:  English    Metric   Both
« Previous Day
Next Day »
Daily Weekly Monthly Yearly Custom
  Current: High: Low: Average:
Temperature: 39.4 °F 49.9 °F 34.1 °F 43.1 °F
Dew Point: 35.3 °F 46.8 °F 33.3 °F 40.4 °F
Humidity: 85% 98% 75% 91%
Wind Speed: 1.0mph 14.0mph 0.0mph 2.3mph
Wind Gust: 2.0mph 25.0mph - -
WindSSW - - West
Pressure: 30.25 in 30.25 in 30.17 in -
Precipitation: 0.02 in      
Historical Graphs
 
 
Tabular Data for December 15, 2017
Time Temperature Dew Point Pressure Wind Wind Speed Wind Gust Humidity Rainfall Rate (Hourly) solar Conditions
00:00 34.1 °F 33.3 °F 30.23 in Calm     97% 0.00 in 0.0 W/m2 CLR
00:04 34.1 °F 33.3 °F 30.23 in Calm     97% 0.00 in 0.0 W/m2 CLR
00:09 34.2 °F 33.4 °F 30.23 in Calm     97% 0.00 in 0.0 W/m2 CLR
00:14 34.3 °F 33.5 °F 30.23 in Calm     97% 0.00 in 0.0 W/m2 CLR
00:19 34.5 °F 33.7 °F 30.22 in Calm     97% 0.00 in 0.0 W/m2 CLR
00:24 34.6 °F 33.9 °F 30.22 in Calm     97% 0.00 in 0.0 W/m2 CLR
00:29 34.8 °F 34.0 °F 30.21 in Calm     97% 0.00 in 0.0 W/m2 CLR
00:34 35.0 °F 34.2 °F 30.21 in Calm     97% 0.00 in 0.0 W/m2 CLR
00:39 35.2 °F 34.5 °F 30.22 in Calm     97% 0.00 in 0.0 W/m2 CLR
00:44 35.5 °F 34.7 °F 30.22 in Calm     97% 0.00 in 0.0 W/m2 CLR
00:49 35.7 °F 34.9 °F 30.23 in Calm     97% 0.00 in 0.0 W/m2 CLR
00:54 36.0 °F 35.5 °F 30.23 in Calm     98% 0.00 in 0.0 W/m2 CLR
00:59 36.2 °F 35.4 °F 30.22 in Calm     97% 0.00 in 0.0 W/m2 CLR
01:05 36.2 °F 35.4 °F 30.22 in Calm     97% 0.00 in 0.0 W/m2 CLR
01:09 36.2 °F 35.4 °F 30.22 in Calm     97% 0.00 in 0.0 W/m2 CLR
01:14 36.4 °F 35.6 °F 30.23 in Calm     97% 0.00 in 0.0 W/m2 CLR
01:19 36.6 °F 35.8 °F 30.23 in Calm     97% 0.00 in 0.0 W/m2 CLR
01:25 36.6 °F 35.8 °F 30.22 in Calm     97% 0.00 in 0.0 W/m2 CLR
01:30 36.8 °F 36.0 °F 30.21 in Calm     97% 0.00 in 0.0 W/m2 CLR
01:34 36.8 °F 36.0 °F 30.21 in Calm     97% 0.00 in 0.0 W/m2 CLR
01:39 36.8 °F 36.1 °F 30.21 in Calm     97% 0.00 in 0.0 W/m2 CLR
01:45 36.9 °F 36.1 °F 30.22 in Calm     97% 0.00 in 0.0 W/m2 CLR
01:49 36.9 °F 36.1 °F 30.21 in Calm     97% 0.00 in 0.0 W/m2 CLR
01:54 37.1 °F 36.3 °F 30.22 in Calm     97% 0.00 in 0.0 W/m2 CLR
02:00 37.1 °F 36.3 °F 30.22 in Calm     97% 0.00 in 0.0 W/m2 CLR
02:04 37.1 °F 36.3 °F 30.22 in Calm     97% 0.00 in 0.0 W/m2 CLR
02:09 37.2 °F 36.4 °F 30.21 in Calm     97% 0.00 in 0.0 W/m2 CLR
02:14 37.3 °F 36.5 °F 30.22 in Calm     97% 0.00 in 0.0 W/m2 CLR
02:19 37.4 °F 36.6 °F 30.22 in Calm     97% 0.00 in 0.0 W/m2 CLR
02:24 37.5 °F 36.7 °F 30.22 in Calm     97% 0.00 in 0.0 W/m2 CLR
02:29 37.5 °F 36.7 °F 30.22 in Calm     97% 0.00 in 0.0 W/m2 CLR
02:34 37.5 °F 36.7 °F 30.22 in Calm     97% 0.00 in 0.0 W/m2 CLR
02:39 37.5 °F 36.7 °F 30.23 in Calm     97% 0.00 in 0.0 W/m2 CLR
02:44 37.7 °F 36.9 °F 30.23 in Calm     97% 0.00 in 0.0 W/m2 CLR
02:49 38.0 °F 37.2 °F 30.23 in Calm     97% 0.00 in 0.0 W/m2 CLR
02:54 38.1 °F 37.6 °F 30.23 in Calm     98% 0.00 in 0.0 W/m2 CLR
03:05 38.3 °F 37.7 °F 30.22 in Calm     98% 0.00 in 0.0 W/m2 CLR
03:14 38.7 °F 38.2 °F 30.22 in Calm     98% 0.00 in 0.0 W/m2 CLR
03:19 38.9 °F 38.4 °F 30.22 in Calm     98% 0.00 in 0.0 W/m2 CLR
03:24 39.0 °F 38.5 °F 30.22 in Calm     98% 0.00 in 0.0 W/m2 CLR
03:30 39.0 °F 38.5 °F 30.22 in Calm     98% 0.00 in 0.0 W/m2 CLR
03:34 38.9 °F 38.1 °F 30.22 in Calm     97% 0.00 in 0.0 W/m2 CLR
03:39 39.0 °F 38.2 °F 30.22 in Calm     97% 0.00 in 0.0 W/m2 CLR
03:44 39.1 °F 38.3 °F 30.22 in Calm     97% 0.00 in 0.0 W/m2 CLR
03:49 39.1 °F 38.3 °F 30.22 in Calm     97% 0.00 in 0.0 W/m2 CLR
03:54 39.0 °F 38.2 °F 30.21 in Calm     97% 0.00 in 0.0 W/m2 CLR
03:59 39.1 °F 38.3 °F 30.21 in Calm     97% 0.00 in 0.0 W/m2 CLR
04:04 39.3 °F 38.5 °F 30.21 in Calm     97% 0.00 in 0.0 W/m2 CLR
04:09 39.4 °F 38.9 °F 30.21 in Calm     98% 0.00 in 0.0 W/m2 CLR
04:15 39.5 °F 39.0 °F 30.21 in Calm     98% 0.00 in 0.0 W/m2 CLR
04:19 39.6 °F 39.1 °F 30.22 in Calm     98% 0.00 in 0.0 W/m2 CLR
04:24 39.7 °F 39.2 °F 30.22 in Calm     98% 0.00 in 0.0 W/m2 CLR
04:29 39.8 °F 39.3 °F 30.22 in Calm     98% 0.00 in 0.0 W/m2 CLR
04:34 40.1 °F 39.5 °F 30.22 in Calm     98% 0.00 in 0.0 W/m2 CLR
04:39 40.1 °F 39.6 °F 30.21 in Calm     98% 0.00 in 0.0 W/m2 CLR
04:44 40.3 °F 39.8 °F 30.20 in Calm     98% 0.00 in 0.0 W/m2 CLR
04:49 40.7 °F 40.2 °F 30.20 in Calm     98% 0.00 in 0.0 W/m2 CLR
04:54 40.8 °F 40.3 °F 30.19 in Calm     98% 0.00 in 0.0 W/m2 CLR
04:59 41.1 °F 40.6 °F 30.19 in Calm     98% 0.00 in 0.0 W/m2 CLR
05:04 41.3 °F 40.8 °F 30.18 in Calm     98% 0.00 in 0.0 W/m2 CLR
05:09 41.4 °F 40.9 °F 30.19 in Calm     98% 0.00 in 0.0 W/m2 CLR
05:14 41.1 °F 40.6 °F 30.20 in Calm     98% 0.00 in 0.0 W/m2 CLR
05:19 41.0 °F 40.5 °F 30.19 in Calm     98% 0.00 in 0.0 W/m2 CLR
05:24 40.9 °F 40.4 °F 30.19 in Calm     98% 0.00 in 0.0 W/m2 CLR
05:29 40.8 °F 40.0 °F 30.19 in Calm     97% 0.00 in 0.0 W/m2 CLR
05:34 40.7 °F 39.9 °F 30.19 in Calm     97% 0.00 in 0.0 W/m2 CLR
05:39 40.7 °F 39.9 °F 30.19 in Calm     97% 0.00 in 0.0 W/m2 CLR
05:44 40.8 °F 40.0 °F 30.20 in Calm     97% 0.00 in 0.0 W/m2 CLR
05:50 40.7 °F 39.9 °F 30.20 in Calm     97% 0.00 in 0.0 W/m2 CLR
05:54 40.6 °F 39.9 °F 30.20 in Calm     97% 0.00 in 0.0 W/m2 CLR
05:59 40.5 °F 39.7 °F 30.20 in Calm     97% 0.00 in 0.0 W/m2 CLR
06:04 40.4 °F 39.7 °F 30.19 in Calm     97% 0.00 in 0.0 W/m2 CLR
06:09 40.3 °F 39.5 °F 30.20 in Calm     97% 0.00 in 0.0 W/m2 CLR
06:14 40.2 °F 39.4 °F 30.19 in Calm     97% 0.00 in 0.0 W/m2 CLR
06:20 40.0 °F 39.2 °F 30.19 in Calm     97% 0.00 in 0.0 W/m2 CLR
06:29 40.3 °F 39.5 °F 30.19 in Calm     97% 0.00 in 0.0 W/m2 CLR
06:34 40.4 °F 39.9 °F 30.19 in Calm     98% 0.00 in 0.0 W/m2 CLR
06:39 40.3 °F 39.5 °F 30.19 in Calm     97% 0.00 in 0.0 W/m2 CLR
06:44 40.4 °F 39.6 °F 30.19 in Calm     97% 0.00 in 0.0 W/m2 CLR
06:49 40.4 °F 39.9 °F 30.19 in Calm     98% 0.00 in 0.0 W/m2 CLR
06:54 40.3 °F 39.5 °F 30.19 in Calm     97% 0.00 in 0.0 W/m2 CLR
07:00 40.4 °F 39.6 °F 30.19 in Calm     97% 0.00 in 0.0 W/m2 CLR
07:04 40.4 °F 39.9 °F 30.19 in Calm     98% 0.00 in 0.0 W/m2 CLR
07:09 40.4 °F 39.9 °F 30.19 in Calm     98% 0.00 in 0.0 W/m2 CLR
07:14 40.4 °F 39.9 °F 30.18 in Calm     98% 0.00 in 0.0 W/m2 CLR
07:19 40.5 °F 40.0 °F 30.18 in Calm     98% 0.00 in 0.0 W/m2 CLR
07:24 40.4 °F 39.9 °F 30.18 in Calm     98% 0.00 in 0.0 W/m2 CLR
07:30 40.5 °F 40.0 °F 30.19 in Calm     98% 0.00 in 0.0 W/m2 OVC
07:34 40.5 °F 40.0 °F 30.19 in Calm     98% 0.00 in 0.0 W/m2 OVC
07:39 40.5 °F 40.0 °F 30.19 in Calm     98% 0.00 in 0.0 W/m2 OVC
07:44 40.5 °F 40.0 °F 30.19 in Calm     98% 0.00 in 0.0 W/m2 OVC
07:49 40.5 °F 40.0 °F 30.19 in Calm     98% 0.00 in 0.0 W/m2 OVC
07:55 40.6 °F 40.1 °F 30.19 in Calm     98% 0.00 in 0.0 W/m2 OVC
08:00 40.6 °F 40.0 °F 30.19 in Calm     98% 0.00 in 0.0 W/m2 OVC
08:10 40.6 °F 40.1 °F 30.20 in Calm     98% 0.00 in 0.0 W/m2 OVC
08:14 40.7 °F 40.2 °F 30.20 in Calm     98% 0.00 in 0.0 W/m2 OVC
08:19 40.9 °F 40.4 °F 30.20 in Calm     98% 0.00 in 0.0 W/m2 OVC
08:24 40.9 °F 40.4 °F 30.20 in Calm     98% 0.00 in 0.0 W/m2 OVC
08:29 41.0 °F 40.5 °F 30.20 in Calm     98% 0.00 in 0.0 W/m2 OVC
08:34 41.1 °F 40.6 °F 30.21 in Calm     98% 0.00 in 0.0 W/m2 OVC
08:39 41.1 °F 40.6 °F 30.21 in Calm     98% 0.00 in 5.0 W/m2 OVC
08:44 41.2 °F 40.6 °F 30.21 in Calm     98% 0.00 in 7.0 W/m2 OVC
08:49 41.2 °F 40.7 °F 30.21 in Calm     98% 0.00 in 9.0 W/m2 OVC
08:54 41.3 °F 40.8 °F 30.21 in Calm     98% 0.00 in 11.0 W/m2 OVC
09:00 41.3 °F 40.8 °F 30.21 in Calm     98% 0.00 in 11.0 W/m2 OVC
09:04 41.3 °F 40.8 °F 30.22 in Calm     98% 0.00 in 12.0 W/m2 CLR
09:09 41.4 °F 40.9 °F 30.22 in Calm     98% 0.00 in 18.0 W/m2 CLR
09:29 41.8 °F 41.3 °F 30.22 in Calm     98% 0.01 in 25.0 W/m2 RA
09:34 41.9 °F 41.4 °F 30.22 in Calm     98% 0.00 in 32.0 W/m2 RA
09:39 41.9 °F 41.4 °F 30.22 in Calm     98% 0.00 in 28.0 W/m2 SCT
09:44 42.1 °F 41.6 °F 30.23 in Calm     98% 0.00 in 23.0 W/m2 BKN
09:50 42.2 °F 41.7 °F 30.23 in Calm     98% 0.00 in 23.0 W/m2 OVC
09:55 42.4 °F 41.9 °F 30.23 in Calm     98% 0.00 in 16.0 W/m2 OVC
09:59 42.4 °F 41.9 °F 30.23 in Calm     98% 0.00 in 21.0 W/m2 OVC
10:10 42.6 °F 42.1 °F 30.23 in Calm     98% 0.00 in 39.0 W/m2 BKN
10:14 42.7 °F 42.2 °F 30.23 in Calm     98% 0.00 in 28.0 W/m2 OVC
10:19 42.9 °F 42.4 °F 30.22 in Calm     98% 0.00 in 32.0 W/m2 OVC
10:29 43.2 °F 42.6 °F 30.22 in Calm     98% 0.00 in 25.0 W/m2 OVC
10:34 43.3 °F 42.8 °F 30.22 in Calm     98% 0.00 in 26.0 W/m2 OVC
10:39 43.4 °F 42.9 °F 30.22 in Calm     98% 0.00 in 30.0 W/m2 OVC
10:44 43.4 °F 42.9 °F 30.21 in Calm     98% 0.00 in 46.0 W/m2 OVC
10:49 43.5 °F 43.0 °F 30.21 in Calm     98% 0.00 in 51.0 W/m2 OVC
10:54 43.6 °F 43.1 °F 30.21 in Calm     98% 0.00 in 46.0 W/m2 OVC
10:59 43.8 °F 43.3 °F 30.21 in Calm     98% 0.00 in 51.0 W/m2 OVC
11:04 44.0 °F 43.5 °F 30.21 in Calm     98% 0.00 in 56.0 W/m2 OVC
11:09 44.2 °F 43.7 °F 30.20 in Calm     98% 0.00 in 74.0 W/m2 BKN
11:14 44.3 °F 43.8 °F 30.20 in Calm     98% 0.00 in 105.0 W/m2 SCT
11:19 44.4 °F 43.9 °F 30.20 in Calm     98% 0.00 in 105.0 W/m2 BKN
11:24 44.5 °F 44.0 °F 30.20 in Calm     98% 0.00 in 178.0 W/m2 FEW
11:29 44.9 °F 44.4 °F 30.20 in Calm     98% 0.00 in 218.0 W/m2 CLR
11:34 45.2 °F 44.6 °F 30.20 in Calm     98% 0.00 in 105.0 W/m2 BKN
11:39 45.4 °F 44.9 °F 30.20 in Calm     98% 0.00 in 132.0 W/m2 SCT
11:44 45.6 °F 45.1 °F 30.20 in Calm     98% 0.00 in 176.0 W/m2 FEW
11:49 45.7 °F 45.2 °F 30.20 in Calm     98% 0.00 in 162.0 W/m2 SCT
11:59 46.1 °F 45.6 °F 30.19 in Calm     98% 0.00 in 169.0 W/m2 SCT
12:04 46.3 °F 45.8 °F 30.19 in Calm     98% 0.00 in 211.0 W/m2 FEW
12:10 46.6 °F 46.1 °F 30.20 in Calm     98% 0.00 in 246.0 W/m2 CLR
12:14 46.8 °F 46.3 °F 30.19 in Calm   1.0 mph 98% 0.00 in 151.0 W/m2 SCT
12:19 46.9 °F 46.4 °F 30.19 in Calm     98% 0.00 in 132.0 W/m2 BKN
12:24 47.1 °F 46.3 °F 30.19 in Calm     97% 0.00 in 156.0 W/m2 SCT
12:30 47.3 °F 46.5 °F 30.19 in Calm   1.0 mph 97% 0.00 in 172.0 W/m2 SCT
12:39 47.6 °F 46.8 °F 30.18 in Calm   3.0 mph 97% 0.00 in 178.0 W/m2 SCT
12:44 48.0 °F 46.6 °F 30.18 in Calm     95% 0.00 in 243.0 W/m2 CLR
12:49 48.3 °F 46.4 °F 30.18 in Calm   13.0 mph 93% 0.00 in 202.0 W/m2 FEW
12:54 48.7 °F 46.2 °F 30.18 in WNW 6.0 mph 14.0 mph 91% 0.00 in 241.0 W/m2 CLR
12:59 49.1 °F 45.7 °F 30.18 in WNW 8.0 mph 15.0 mph 88% 0.00 in 330.0 W/m2 CLR
13:04 49.4 °F 45.4 °F 30.18 in WNW 5.0 mph 15.0 mph 86% 0.00 in 267.0 W/m2 CLR
13:09 49.5 °F 45.5 °F 30.17 in WNW 10.0 mph 16.0 mph 86% 0.00 in 290.0 W/m2 CLR
13:14 49.4 °F 45.4 °F 30.17 in WNW 3.0 mph 16.0 mph 86% 0.00 in 264.0 W/m2 CLR
13:19 49.4 °F 45.1 °F 30.17 in WNW 10.0 mph 18.0 mph 85% 0.00 in 304.0 W/m2 CLR
13:24 49.4 °F 44.8 °F 30.17 in WNW 9.0 mph 13.0 mph 84% 0.00 in 264.0 W/m2 CLR
13:29 49.6 °F 44.3 °F 30.17 in WNW 5.0 mph 14.0 mph 82% 0.00 in 248.0 W/m2 CLR
13:34 49.6 °F 43.7 °F 30.17 in WNW 6.0 mph 17.0 mph 80% 0.00 in 160.0 W/m2 SCT
13:39 49.5 °F 43.6 °F 30.17 in WNW 7.0 mph 15.0 mph 80% 0.00 in 142.0 W/m2 SCT
13:44 49.4 °F 43.5 °F 30.17 in WNW 9.0 mph 18.0 mph 80% 0.00 in 251.0 W/m2 CLR
13:49 49.4 °F 43.5 °F 30.17 in WNW 14.0 mph 20.0 mph 80% 0.00 in 287.0 W/m2 CLR
13:54 49.6 °F 43.6 °F 30.17 in WNW 7.0 mph 17.0 mph 80% 0.00 in 260.0 W/m2 CLR
13:59 49.7 °F 43.4 °F 30.17 in West 7.0 mph 18.0 mph 79% 0.00 in 244.0 W/m2 CLR
14:04 49.8 °F 43.2 °F 30.17 in West 5.0 mph 18.0 mph 78% 0.00 in 230.0 W/m2 CLR
14:09 49.8 °F 42.9 °F 30.17 in WNW 6.0 mph 18.0 mph 77% 0.00 in 209.0 W/m2 FEW
14:19 49.9 °F 42.3 °F 30.17 in WNW 12.0 mph 20.0 mph 75% 0.00 in 190.0 W/m2 RA
14:24 49.8 °F 42.2 °F 30.17 in WNW 9.0 mph 18.0 mph 75% 0.00 in 185.0 W/m2 FEW
14:30 49.8 °F 42.5 °F 30.17 in WNW 8.0 mph 22.0 mph 76% 0.00 in 176.0 W/m2 FEW
14:39 49.7 °F 42.1 °F 30.17 in WNW 5.0 mph 15.0 mph 75% 0.00 in 162.0 W/m2 FEW
14:44 49.7 °F 42.4 °F 30.17 in WNW 7.0 mph 13.0 mph 76% 0.00 in 163.0 W/m2 FEW
14:49 49.6 °F 42.7 °F 30.17 in WNW 1.0 mph 20.0 mph 77% 0.00 in 135.0 W/m2 SCT
14:54 49.3 °F 42.7 °F 30.18 in WNW 9.0 mph 20.0 mph 78% 0.00 in 70.0 W/m2 OVC
14:59 49.1 °F 42.5 °F 30.18 in WNW 6.0 mph 14.0 mph 78% 0.00 in 63.0 W/m2 OVC
15:04 49.1 °F 42.9 °F 30.18 in WNW 5.0 mph 16.0 mph 79% 0.00 in 114.0 W/m2 SCT
15:09 49.2 °F 43.0 °F 30.18 in WNW 2.0 mph 16.0 mph 79% 0.00 in 102.0 W/m2 SCT
15:14 49.2 °F 42.6 °F 30.18 in NW 3.0 mph 17.0 mph 78% 0.00 in 84.0 W/m2 BKN
15:19 49.1 °F 42.5 °F 30.18 in NW 10.0 mph 17.0 mph 78% 0.00 in 74.0 W/m2 BKN
15:24 48.9 °F 42.7 °F 30.18 in NW 7.0 mph 16.0 mph 79% 0.00 in 65.0 W/m2 BKN
15:29 48.8 °F 42.9 °F 30.18 in NW 9.0 mph 15.0 mph 80% 0.00 in 28.0 W/m2 OVC
15:34 48.6 °F 42.7 °F 30.19 in NW 6.0 mph 14.0 mph 80% 0.00 in 28.0 W/m2 OVC
15:39 48.5 °F 42.6 °F 30.19 in NW 10.0 mph 15.0 mph 80% 0.00 in 26.0 W/m2 OVC
15:49 48.2 °F 42.6 °F 30.19 in NW 6.0 mph 13.0 mph 81% 0.00 in 25.0 W/m2 OVC
15:54 48.1 °F 42.2 °F 30.19 in WNW 7.0 mph 12.0 mph 80% 0.00 in 23.0 W/m2 OVC
15:59 48.1 °F 41.6 °F 30.19 in WNW 6.0 mph 12.0 mph 78% 0.00 in 21.0 W/m2 OVC
16:04 48.1 °F 41.3 °F 30.19 in WNW 2.0 mph 8.0 mph 77% 0.00 in 14.0 W/m2 OVC
16:09 48.1 °F 41.2 °F 30.19 in Calm   12.0 mph 77% 0.00 in 7.0 W/m2 OVC
16:15 47.9 °F 40.7 °F 30.20 in West 5.0 mph 12.0 mph 76% 0.00 in 5.0 W/m2 OVC
16:24 47.8 °F 40.6 °F 30.20 in WSW 5.0 mph 14.0 mph 76% 0.00 in 0.0 W/m2 OVC
16:30 47.7 °F 40.8 °F 30.20 in West 6.0 mph 14.0 mph 77% 0.00 in 0.0 W/m2 OVC
16:34 47.6 °F 40.7 °F 30.20 in WSW 5.0 mph 14.0 mph 77% 0.00 in 0.0 W/m2 OVC
16:40 47.5 °F 41.0 °F 30.19 in WSW 2.0 mph 13.0 mph 78% 0.00 in 0.0 W/m2 OVC
16:45 47.3 °F 40.8 °F 30.20 in West 7.0 mph 13.0 mph 78% 0.00 in 0.0 W/m2 OVC
16:59 47.6 °F 41.0 °F 30.20 in West 13.0 mph 22.0 mph 78% 0.00 in 0.0 W/m2 CLR
17:04 47.5 °F 41.0 °F 30.20 in West 10.0 mph 25.0 mph 78% 0.00 in 0.0 W/m2 CLR
17:09 47.5 °F 40.6 °F 30.21 in WNW 9.0 mph 17.0 mph 77% 0.00 in 0.0 W/m2 CLR
17:14 47.4 °F 40.6 °F 30.21 in WNW 5.0 mph 20.0 mph 77% 0.00 in 0.0 W/m2 CLR
17:19 47.2 °F 40.7 °F 30.21 in WNW 8.0 mph 15.0 mph 78% 0.00 in 0.0 W/m2 CLR
17:24 47.1 °F 40.6 °F 30.22 in West 6.0 mph 12.0 mph 78% 0.00 in 0.0 W/m2 CLR
17:29 47.0 °F 40.8 °F 30.21 in West 6.0 mph 14.0 mph 79% 0.00 in 0.0 W/m2 CLR
17:34 47.1 °F 40.6 °F 30.21 in WNW 7.0 mph 13.0 mph 78% 0.00 in 0.0 W/m2 CLR
17:39 47.1 °F 40.6 °F 30.22 in West 5.0 mph 15.0 mph 78% 0.00 in 0.0 W/m2 CLR
17:44 47.0 °F 40.5 °F 30.22 in West 8.0 mph 13.0 mph 78% 0.00 in 0.0 W/m2 CLR
17:49 46.9 °F 40.4 °F 30.22 in West 6.0 mph 13.0 mph 78% 0.00 in 0.0 W/m2 CLR
17:54 46.8 °F 40.3 °F 30.22 in West 5.0 mph 12.0 mph 78% 0.00 in 0.0 W/m2 CLR
17:59 46.7 °F 40.2 °F 30.23 in WNW 6.0 mph 10.0 mph 78% 0.00 in 0.0 W/m2 CLR
18:04 46.8 °F 40.3 °F 30.23 in West 7.0 mph 13.0 mph 78% 0.00 in 0.0 W/m2 CLR
18:09 47.0 °F 40.5 °F 30.23 in West 8.0 mph 12.0 mph 78% 0.00 in 0.0 W/m2 CLR
18:14 47.1 °F 40.9 °F 30.23 in West 9.0 mph 15.0 mph 79% 0.00 in 0.0 W/m2 CLR
18:19 47.2 °F 41.3 °F 30.23 in West 8.0 mph 14.0 mph 80% 0.00 in 0.0 W/m2 CLR
18:24 47.2 °F 41.3 °F 30.23 in West 8.0 mph 14.0 mph 80% 0.00 in 0.0 W/m2 CLR
18:29 47.2 °F 41.3 °F 30.23 in WNW 7.0 mph 16.0 mph 80% 0.00 in 0.0 W/m2 CLR
18:34 47.3 °F 41.4 °F 30.23 in West 8.0 mph 16.0 mph 80% 0.00 in 0.0 W/m2 CLR
18:39 47.3 °F 41.4 °F 30.23 in WNW 6.0 mph 12.0 mph 80% 0.00 in 0.0 W/m2 CLR
18:44 47.3 °F 41.4 °F 30.23 in WNW 10.0 mph 16.0 mph 80% 0.00 in 0.0 W/m2 CLR
18:49 47.2 °F 41.3 °F 30.23 in West 7.0 mph 15.0 mph 80% 0.00 in 0.0 W/m2 CLR
18:54 47.2 °F 41.3 °F 30.23 in West 2.0 mph 10.0 mph 80% 0.00 in 0.0 W/m2 CLR
18:59 47.1 °F 41.2 °F 30.23 in West 6.0 mph 12.0 mph 80% 0.00 in 0.0 W/m2 CLR
19:04 47.1 °F 41.2 °F 30.23 in West 7.0 mph 12.0 mph 80% 0.00 in 0.0 W/m2 CLR
19:09 47.0 °F 41.1 °F 30.23 in West 7.0 mph 13.0 mph 80% 0.00 in 0.0 W/m2 CLR
19:19 46.9 °F 41.1 °F 30.23 in WSW 6.0 mph 12.0 mph 80% 0.00 in 0.0 W/m2 CLR
19:24 46.7 °F 40.6 °F 30.24 in West 5.0 mph 8.0 mph 79% 0.00 in 0.0 W/m2 CLR
19:29 46.7 °F 40.9 °F 30.24 in West 2.0 mph 9.0 mph 80% 0.00 in 0.0 W/m2 CLR
19:34 46.7 °F 40.5 °F 30.24 in West 6.0 mph 10.0 mph 79% 0.00 in 0.0 W/m2 CLR
19:39 46.8 °F 40.6 °F 30.24 in West 5.0 mph 12.0 mph 79% 0.00 in 0.0 W/m2 CLR
19:44 46.7 °F 40.5 °F 30.24 in West 7.0 mph 10.0 mph 79% 0.00 in 0.0 W/m2 CLR
19:49 46.8 °F 40.6 °F 30.24 in West 9.0 mph 14.0 mph 79% 0.00 in 0.0 W/m2 CLR
19:54 46.8 °F 40.9 °F 30.24 in WNW 6.0 mph 12.0 mph 80% 0.00 in 0.0 W/m2 CLR
19:59 46.7 °F 40.9 °F 30.24 in WNW 9.0 mph 13.0 mph 80% 0.00 in 0.0 W/m2 CLR
20:04 46.7 °F 40.9 °F 30.24 in WNW 5.0 mph 12.0 mph 80% 0.00 in 0.0 W/m2 CLR
20:09 46.6 °F 40.8 °F 30.24 in West 2.0 mph 12.0 mph 80% 0.00 in 0.0 W/m2 CLR
20:14 46.4 °F 40.6 °F 30.25 in West 3.0 mph 13.0 mph 80% 0.00 in 0.0 W/m2 CLR
20:19 46.1 °F 39.9 °F 30.25 in WSW 3.0 mph 6.0 mph 79% 0.00 in 0.0 W/m2 CLR
20:24 45.1 °F 38.6 °F 30.25 in SW 3.0 mph 5.0 mph 78% 0.00 in 0.0 W/m2 CLR
20:29 44.4 °F 38.7 °F 30.25 in SSW 3.0 mph 7.0 mph 80% 0.00 in 0.0 W/m2 CLR
20:35 43.4 °F 37.6 °F 30.25 in Calm   6.0 mph 80% 0.00 in 0.0 W/m2 CLR
20:44 41.3 °F 36.3 °F 30.25 in SSW 2.0 mph 4.0 mph 82% 0.00 in 0.0 W/m2 CLR
20:49 40.6 °F 36.2 °F 30.25 in Calm   4.0 mph 84% 0.00 in 0.0 W/m2 CLR
20:54 40.3 °F 36.1 °F 30.25 in Calm   5.0 mph 85% 0.00 in 0.0 W/m2 CLR
20:59 40.1 °F 35.9 °F 30.25 in Calm   2.0 mph 85% 0.00 in 0.0 W/m2 CLR
21:04 39.4 °F 35.3 °F 30.25 in SSW 1.0 mph 2.0 mph 85% 0.00 in 0.0 W/m2 CLR
Donkey Whisperer Farm
Compliments of Weather Underground - 2.75 mb